Time;durP1;ratioP1;P1;durP2;ratioP2;P2;SDS_P1;SDS_P2;PMS_P1;PMS_P2;Temp;Humidity;BMP_temperature;BMP_pressure;BME280_temperature;BME280_humidity;BME280_pressure;Samples;Min_cycle;Max_cycle;Signal;HPM_P1;HPM_P2
2022/03/09 00:00:32;;;;;;;10.8;9.7;;;;;;;3.3;98.2;101910;;;;
2022/03/09 00:08:32;;;;;;;10.8;9.7;;;;;;;3.4;98.6;101920;;;;
2022/03/09 00:12:32;;;;;;;10.8;9.7;;;;;;;3.3;98.8;101920;;;;
2022/03/09 00:16:32;;;;;;;11.2;10.1;;;;;;;3.2;100.0;101920;;;;
2022/03/09 00:18:32;;;;;;;11.2;10.1;;;;;;;3.3;100.0;101930;;;;
2022/03/09 00:20:32;;;;;;;11.2;10.1;;;;;;;3.2;100.0;101930;;;;
2022/03/09 00:24:32;;;;;;;11.2;10.1;;;;;;;3.3;100.0;101930;;;;
2022/03/09 00:26:32;;;;;;;11.2;10.1;;;;;;;3.1;100.0;101930;;;;
2022/03/09 00:28:35;;;;;;;11.2;10.1;;;;;;;3.2;100.0;101930;;;;
2022/03/09 00:32:32;;;;;;;11.2;10.1;;;;;;;3.1;100.0;101930;;;;
2022/03/09 00:40:32;;;;;;;11.5;10.2;;;;;;;3.0;100.0;101920;;;;
2022/03/09 00:50:32;;;;;;;11.5;10.2;;;;;;;2.9;100.0;101930;;;;
2022/03/09 00:54:32;;;;;;;11.5;10.2;;;;;;;3.0;100.0;101910;;;;
2022/03/09 01:00:32;;;;;;;11.7;10.2;;;;;;;2.9;100.0;101920;;;;
2022/03/09 01:02:32;;;;;;;11.7;10.2;;;;;;;2.8;100.0;101920;;;;
2022/03/09 01:04:34;;;;;;;11.7;10.2;;;;;;;2.9;100.0;101920;;;;
2022/03/09 01:08:32;;;;;;;11.7;10.2;;;;;;;2.8;100.0;101930;;;;
2022/03/09 01:10:32;;;;;;;11.7;10.2;;;;;;;2.9;100.0;101930;;;;
2022/03/09 01:12:32;;;;;;;11.7;10.2;;;;;;;3.0;98.7;101930;;;;
2022/03/09 01:14:32;;;;;;;11.7;10.2;;;;;;;2.9;100.0;101930;;;;
2022/03/09 01:16:32;;;;;;;12.6;11.3;;;;;;;2.8;100.0;101930;;;;
2022/03/09 01:22:32;;;;;;;12.6;11.3;;;;;;;2.7;100.0;101920;;;;
2022/03/09 01:28:32;;;;;;;12.6;11.3;;;;;;;2.6;100.0;101920;;;;
2022/03/09 01:32:32;;;;;;;12.6;11.3;;;;;;;2.7;100.0;101910;;;;
2022/03/09 01:36:32;;;;;;;12.3;11.0;;;;;;;2.5;100.0;101920;;;;
2022/03/09 01:38:32;;;;;;;12.3;11.0;;;;;;;2.6;100.0;101920;;;;
2022/03/09 01:40:32;;;;;;;12.3;11.0;;;;;;;2.5;100.0;101920;;;;
2022/03/09 01:48:32;;;;;;;12.3;11.0;;;;;;;2.6;100.0;101910;;;;
2022/03/09 01:50:32;;;;;;;12.3;11.0;;;;;;;2.5;100.0;101910;;;;
2022/03/09 01:54:32;;;;;;;12.3;11.0;;;;;;;2.4;100.0;101910;;;;
2022/03/09 01:56:33;;;;;;;12.1;10.9;;;;;;;2.5;100.0;101900;;;;
2022/03/09 02:00:32;;;;;;;12.1;10.9;;;;;;;2.3;100.0;101900;;;;
2022/03/09 02:12:33;;;;;;;12.1;10.9;;;;;;;2.2;100.0;101890;;;;
2022/03/09 02:16:35;;;;;;;12.1;10.8;;;;;;;2.3;100.0;101890;;;;
2022/03/09 02:18:32;;;;;;;12.1;10.8;;;;;;;2.2;100.0;101890;;;;
2022/03/09 02:22:33;;;;;;;12.1;10.8;;;;;;;2.1;100.0;101900;;;;
2022/03/09 02:26:32;;;;;;;12.1;10.8;;;;;;;2.2;100.0;101900;;;;
2022/03/09 02:28:32;;;;;;;12.1;10.8;;;;;;;2.1;100.0;101900;;;;
2022/03/09 02:30:32;;;;;;;12.1;10.8;;;;;;;2.0;100.0;101900;;;;
2022/03/09 02:40:32;;;;;;;14.0;12.0;;;;;;;1.9;100.0;101900;;;;
2022/03/09 02:42:33;;;;;;;14.0;12.0;;;;;;;1.8;100.0;101900;;;;
2022/03/09 02:44:32;;;;;;;14.0;12.0;;;;;;;1.9;100.0;101890;;;;
2022/03/09 02:46:32;;;;;;;14.0;12.0;;;;;;;1.8;100.0;101890;;;;
2022/03/09 02:52:32;;;;;;;14.0;12.0;;;;;;;1.7;100.0;101880;;;;
2022/03/09 02:54:32;;;;;;;14.0;12.0;;;;;;;1.6;100.0;101880;;;;
2022/03/09 02:56:32;;;;;;;12.7;11.1;;;;;;;1.7;100.0;101890;;;;
2022/03/09 03:00:32;;;;;;;12.7;11.1;;;;;;;1.6;100.0;101880;;;;
2022/03/09 03:08:33;;;;;;;12.7;11.1;;;;;;;1.5;100.0;101890;;;;
2022/03/09 03:18:32;;;;;;;12.8;11.5;;;;;;;1.6;100.0;101890;;;;
2022/03/09 03:20:32;;;;;;;12.8;11.5;;;;;;;1.4;100.0;101890;;;;
2022/03/09 03:24:32;;;;;;;12.8;11.5;;;;;;;1.3;100.0;101890;;;;
2022/03/09 03:30:32;;;;;;;12.8;11.5;;;;;;;1.2;100.0;101890;;;;
2022/03/09 03:34:32;;;;;;;12.8;11.5;;;;;;;1.3;100.0;101890;;;;
2022/03/09 03:36:32;;;;;;;13.6;12.2;;;;;;;1.2;100.0;101890;;;;
2022/03/09 03:42:32;;;;;;;13.6;12.2;;;;;;;1.1;100.0;101890;;;;
2022/03/09 03:48:32;;;;;;;13.6;12.2;;;;;;;1.0;100.0;101890;;;;
2022/03/09 03:50:32;;;;;;;13.6;12.2;;;;;;;0.9;100.0;101880;;;;
2022/03/09 03:56:32;;;;;;;14.0;12.6;;;;;;;1.0;100.0;101890;;;;
2022/03/09 03:58:32;;;;;;;14.0;12.6;;;;;;;0.9;100.0;101880;;;;
2022/03/09 04:04:34;;;;;;;14.0;12.6;;;;;;;0.8;100.0;101890;;;;
2022/03/09 04:10:32;;;;;;;14.0;12.6;;;;;;;0.7;100.0;101890;;;;
2022/03/09 04:12:32;;;;;;;14.0;12.6;;;;;;;0.6;100.0;101880;;;;
2022/03/09 04:14:32;;;;;;;14.0;12.6;;;;;;;0.7;100.0;101890;;;;
2022/03/09 04:18:32;;;;;;;14.6;13.2;;;;;;;0.6;100.0;101890;;;;
2022/03/09 04:24:32;;;;;;;14.6;13.2;;;;;;;0.5;100.0;101890;;;;
2022/03/09 04:26:32;;;;;;;14.6;13.2;;;;;;;0.6;100.0;101890;;;;
2022/03/09 04:28:32;;;;;;;14.6;13.2;;;;;;;0.5;100.0;101890;;;;
2022/03/09 04:34:32;;;;;;;14.4;12.9;;;;;;;0.6;100.0;101890;;;;
2022/03/09 04:36:32;;;;;;;14.4;12.9;;;;;;;0.5;100.0;101890;;;;
2022/03/09 04:38:32;;;;;;;14.4;12.9;;;;;;;0.4;100.0;101890;;;;
2022/03/09 04:48:32;;;;;;;14.4;12.9;;;;;;;0.3;100.0;101890;;;;
2022/03/09 04:50:32;;;;;;;14.4;12.9;;;;;;;0.4;100.0;101900;;;;
2022/03/09 04:52:32;;;;;;;14.4;12.9;;;;;;;0.3;100.0;101890;;;;
2022/03/09 05:00:32;;;;;;;14.6;13.2;;;;;;;0.2;100.0;101900;;;;
2022/03/09 05:06:32;;;;;;;14.6;13.2;;;;;;;0.1;100.0;101900;;;;
2022/03/09 05:14:32;;;;;;;15.9;13.7;;;;;;;0.3;100.0;101890;;;;
2022/03/09 05:16:32;;;;;;;15.9;13.7;;;;;;;0.2;100.0;101890;;;;
2022/03/09 05:20:32;;;;;;;15.9;13.7;;;;;;;0.1;100.0;101890;;;;
2022/03/09 05:22:32;;;;;;;15.9;13.7;;;;;;;0.2;100.0;101900;;;;
2022/03/09 05:28:32;;;;;;;15.9;13.7;;;;;;;0.1;100.0;101900;;;;
2022/03/09 05:30:32;;;;;;;15.9;13.7;;;;;;;0.2;100.0;101900;;;;
2022/03/09 05:38:32;;;;;;;19.7;13.3;;;;;;;0.3;100.0;101900;;;;
2022/03/09 05:40:32;;;;;;;19.7;13.3;;;;;;;0.2;100.0;101900;;;;
2022/03/09 05:42:32;;;;;;;19.7;13.3;;;;;;;0.1;100.0;101910;;;;
2022/03/09 05:44:32;;;;;;;19.7;13.3;;;;;;;0.2;100.0;101910;;;;
2022/03/09 05:46:32;;;;;;;19.7;13.3;;;;;;;0.1;100.0;101910;;;;
2022/03/09 05:50:36;;;;;;;19.7;13.3;;;;;;;0.2;100.0;101910;;;;
2022/03/09 05:52:32;;;;;;;19.7;13.3;;;;;;;0.1;100.0;101920;;;;
2022/03/09 05:56:32;;;;;;;14.8;13.2;;;;;;;0.2;100.0;101930;;;;
2022/03/09 05:58:32;;;;;;;14.8;13.2;;;;;;;0.1;100.0;101930;;;;
2022/03/09 06:00:32;;;;;;;14.8;13.2;;;;;;;0.3;100.0;101930;;;;
2022/03/09 06:02:32;;;;;;;14.8;13.2;;;;;;;0.1;100.0;101930;;;;
2022/03/09 06:12:32;;;;;;;14.8;13.2;;;;;;;0.0;100.0;101940;;;;
2022/03/09 06:14:32;;;;;;;15.1;12.8;;;;;;;0.2;100.0;101940;;;;
2022/03/09 06:18:32;;;;;;;15.1;12.8;;;;;;;0.1;100.0;101940;;;;
2022/03/09 06:28:32;;;;;;;15.1;12.8;;;;;;;0.2;100.0;101940;;;;
2022/03/09 06:30:32;;;;;;;15.1;12.8;;;;;;;0.1;100.0;101940;;;;
2022/03/09 06:32:32;;;;;;;15.1;12.8;;;;;;;0.2;100.0;101940;;;;
2022/03/09 06:34:32;;;;;;;16.9;13.5;;;;;;;0.1;100.0;101950;;;;
2022/03/09 06:35:33;;;;;;;16.9;13.5;;;;;;;0.1;100.0;101950;;;;
2022/03/09 06:38:32;;;;;;;16.9;13.5;;;;;;;0.2;100.0;101950;;;;
2022/03/09 06:48:34;;;;;;;16.9;13.5;;;;;;;0.3;100.0;101970;;;;
2022/03/09 06:54:32;;;;;;;14.3;12.0;;;;;;;0.5;100.0;101980;;;;
2022/03/09 07:00:33;;;;;;;14.3;12.0;;;;;;;0.6;100.0;101980;;;;
2022/03/09 07:08:32;;;;;;;14.3;12.0;;;;;;;0.7;100.0;101980;;;;
2022/03/09 07:10:32;;;;;;;14.3;12.0;;;;;;;0.8;100.0;101980;;;;
2022/03/09 07:12:32;;;;;;;14.3;12.0;;;;;;;0.9;100.0;101980;;;;
2022/03/09 07:14:32;;;;;;;13.7;12.3;;;;;;;1.0;100.0;101980;;;;
2022/03/09 07:16:32;;;;;;;13.7;12.3;;;;;;;0.9;100.0;101990;;;;
2022/03/09 07:18:32;;;;;;;13.7;12.3;;;;;;;0.8;100.0;102000;;;;
2022/03/09 07:20:32;;;;;;;13.7;12.3;;;;;;;0.9;100.0;102000;;;;
2022/03/09 07:24:32;;;;;;;13.7;12.3;;;;;;;1.0;100.0;102000;;;;
2022/03/09 07:26:33;;;;;;;13.7;12.3;;;;;;;1.3;100.0;102000;;;;
2022/03/09 07:28:32;;;;;;;13.7;12.3;;;;;;;1.2;100.0;102000;;;;
2022/03/09 07:30:32;;;;;;;13.7;12.3;;;;;;;1.3;100.0;102000;;;;
2022/03/09 07:32:42;;;;;;;13.7;12.3;;;;;;;1.5;100.0;102000;;;;
2022/03/09 07:38:33;;;;;;;14.0;12.0;;;;;;;1.6;100.0;101990;;;;
2022/03/09 07:42:33;;;;;;;14.0;12.0;;;;;;;1.8;100.0;101990;;;;
2022/03/09 07:44:34;;;;;;;14.0;12.0;;;;;;;1.9;100.0;101990;;;;
2022/03/09 07:46:35;;;;;;;14.0;12.0;;;;;;;1.8;100.0;102000;;;;
2022/03/09 07:48:32;;;;;;;14.0;12.0;;;;;;;2.0;100.0;102000;;;;
2022/03/09 07:50:32;;;;;;;14.0;12.0;;;;;;;1.9;100.0;101990;;;;
2022/03/09 07:52:32;;;;;;;14.0;12.0;;;;;;;2.1;100.0;102000;;;;
2022/03/09 07:54:32;;;;;;;16.2;12.7;;;;;;;2.2;100.0;101990;;;;
2022/03/09 07:56:32;;;;;;;16.2;12.7;;;;;;;2.1;100.0;102000;;;;
2022/03/09 07:58:32;;;;;;;16.2;12.7;;;;;;;2.3;100.0;102000;;;;
2022/03/09 08:00:32;;;;;;;16.2;12.7;;;;;;;2.5;100.0;102000;;;;
2022/03/09 08:08:32;;;;;;;16.2;12.7;;;;;;;2.8;100.0;102000;;;;
2022/03/09 08:16:32;;;;;;;12.7;11.4;;;;;;;2.9;100.0;102000;;;;
2022/03/09 08:18:32;;;;;;;12.7;11.4;;;;;;;3.1;100.0;102000;;;;
2022/03/09 08:22:32;;;;;;;12.7;11.4;;;;;;;3.3;100.0;102000;;;;
2022/03/09 08:24:36;;;;;;;12.7;11.4;;;;;;;3.5;100.0;102000;;;;
2022/03/09 08:26:32;;;;;;;12.7;11.4;;;;;;;3.6;100.0;102010;;;;
2022/03/09 08:28:32;;;;;;;12.7;11.4;;;;;;;3.8;100.0;102010;;;;
2022/03/09 08:30:32;;;;;;;12.7;11.4;;;;;;;3.9;100.0;102010;;;;
2022/03/09 08:32:32;;;;;;;12.7;11.4;;;;;;;4.1;100.0;102020;;;;
2022/03/09 08:34:32;;;;;;;12.0;10.7;;;;;;;4.2;98.4;102020;;;;
2022/03/09 08:38:32;;;;;;;12.0;10.7;;;;;;;4.3;100.0;102020;;;;
2022/03/09 08:40:32;;;;;;;12.0;10.7;;;;;;;4.4;98.9;102020;;;;
2022/03/09 08:42:32;;;;;;;12.0;10.7;;;;;;;4.5;98.9;102020;;;;
2022/03/09 08:44:32;;;;;;;12.0;10.7;;;;;;;4.6;95.0;102020;;;;
2022/03/09 08:48:32;;;;;;;12.0;10.7;;;;;;;4.8;94.8;102020;;;;
2022/03/09 08:52:32;;;;;;;12.0;10.7;;;;;;;4.9;94.4;102010;;;;
2022/03/09 08:54:32;;;;;;;13.4;10.7;;;;;;;5.0;94.8;102000;;;;
2022/03/09 08:58:32;;;;;;;13.4;10.7;;;;;;;5.1;96.5;102010;;;;
2022/03/09 09:00:32;;;;;;;13.4;10.7;;;;;;;5.2;95.0;102010;;;;
2022/03/09 09:02:32;;;;;;;13.4;10.7;;;;;;;5.3;91.5;102000;;;;
2022/03/09 09:04:32;;;;;;;13.4;10.7;;;;;;;5.5;90.3;102010;;;;
2022/03/09 09:08:32;;;;;;;13.4;10.7;;;;;;;5.4;92.6;102010;;;;
2022/03/09 09:10:32;;;;;;;13.4;10.7;;;;;;;5.6;92.3;102000;;;;
2022/03/09 09:14:32;;;;;;;12.0;10.8;;;;;;;5.8;90.8;102010;;;;
2022/03/09 09:16:32;;;;;;;12.0;10.8;;;;;;;5.9;89.7;102010;;;;
2022/03/09 09:18:32;;;;;;;12.0;10.8;;;;;;;6.0;89.9;102010;;;;
2022/03/09 09:20:32;;;;;;;12.0;10.8;;;;;;;6.1;89.9;102010;;;;
2022/03/09 09:22:43;;;;;;;12.0;10.8;;;;;;;6.2;89.6;102000;;;;
2022/03/09 09:24:32;;;;;;;12.0;10.8;;;;;;;6.4;84.4;102000;;;;
2022/03/09 09:30:32;;;;;;;12.0;10.8;;;;;;;6.6;86.0;102010;;;;
2022/03/09 09:32:32;;;;;;;12.0;10.8;;;;;;;6.8;83.8;102000;;;;
2022/03/09 09:34:32;;;;;;;12.2;10.9;;;;;;;6.7;84.6;102010;;;;
2022/03/09 09:36:32;;;;;;;12.2;10.9;;;;;;;7.0;81.5;102000;;;;
2022/03/09 09:40:32;;;;;;;12.2;10.9;;;;;;;7.1;83.5;102010;;;;
2022/03/09 09:42:38;;;;;;;12.2;10.9;;;;;;;7.3;78.0;102010;;;;
2022/03/09 09:48:33;;;;;;;12.2;10.9;;;;;;;7.4;77.2;102000;;;;
2022/03/09 09:50:32;;;;;;;12.2;10.9;;;;;;;7.5;77.9;102000;;;;
2022/03/09 09:52:33;;;;;;;12.2;10.9;;;;;;;7.6;75.1;102000;;;;
2022/03/09 09:54:33;;;;;;;13.0;11.4;;;;;;;7.7;76.0;102000;;;;
2022/03/09 09:56:32;;;;;;;13.0;11.4;;;;;;;7.9;74.8;102000;;;;
2022/03/09 09:58:32;;;;;;;13.0;11.4;;;;;;;7.8;74.5;102000;;;;
2022/03/09 10:00:35;;;;;;;13.0;11.4;;;;;;;8.0;75.3;102010;;;;
2022/03/09 10:02:32;;;;;;;13.0;11.4;;;;;;;8.1;71.6;102010;;;;
2022/03/09 10:06:32;;;;;;;13.0;11.4;;;;;;;8.2;72.7;102010;;;;
2022/03/09 10:10:32;;;;;;;13.0;11.4;;;;;;;8.3;71.4;102010;;;;
2022/03/09 10:12:35;;;;;;;13.0;11.4;;;;;;;8.4;70.8;102010;;;;
2022/03/09 10:16:33;;;;;;;13.3;11.9;;;;;;;8.5;70.0;102000;;;;
2022/03/09 10:20:33;;;;;;;13.3;11.9;;;;;;;8.6;70.0;102000;;;;
2022/03/09 10:22:42;;;;;;;13.3;11.9;;;;;;;8.4;66.7;102000;;;;
2022/03/09 10:24:34;;;;;;;13.3;11.9;;;;;;;8.5;67.3;102000;;;;
2022/03/09 10:26:34;;;;;;;13.3;11.9;;;;;;;8.7;69.9;102000;;;;
2022/03/09 10:28:32;;;;;;;13.3;11.9;;;;;;;8.8;69.4;101990;;;;
2022/03/09 10:32:32;;;;;;;13.3;11.9;;;;;;;8.9;69.6;101990;;;;
2022/03/09 10:34:35;;;;;;;16.9;12.2;;;;;;;9.0;68.1;101990;;;;
2022/03/09 10:38:32;;;;;;;16.9;12.2;;;;;;;9.1;68.3;101980;;;;
2022/03/09 10:40:32;;;;;;;16.9;12.2;;;;;;;9.2;68.4;101990;;;;
2022/03/09 10:42:32;;;;;;;16.9;12.2;;;;;;;9.3;68.9;101980;;;;
2022/03/09 10:44:32;;;;;;;16.9;12.2;;;;;;;9.4;66.8;101980;;;;
2022/03/09 10:46:32;;;;;;;16.9;12.2;;;;;;;9.5;67.2;101980;;;;
2022/03/09 10:50:32;;;;;;;16.9;12.2;;;;;;;9.6;68.9;101970;;;;
2022/03/09 10:52:32;;;;;;;16.9;12.2;;;;;;;9.8;67.2;101970;;;;
2022/03/09 10:54:35;;;;;;;15.2;13.1;;;;;;;9.7;68.5;101970;;;;
2022/03/09 10:56:32;;;;;;;15.2;13.1;;;;;;;9.9;68.0;101970;;;;
2022/03/09 11:00:32;;;;;;;15.2;13.1;;;;;;;9.6;66.4;101980;;;;
2022/03/09 11:02:39;;;;;;;15.2;13.1;;;;;;;9.8;66.1;101970;;;;
2022/03/09 11:04:32;;;;;;;15.2;13.1;;;;;;;10.0;66.4;101970;;;;
2022/03/09 11:06:32;;;;;;;15.2;13.1;;;;;;;9.9;66.8;101970;;;;
2022/03/09 11:08:32;;;;;;;15.2;13.1;;;;;;;10.1;67.9;101970;;;;
2022/03/09 11:10:32;;;;;;;15.2;13.1;;;;;;;10.2;68.9;101970;;;;
2022/03/09 11:12:36;;;;;;;15.2;13.1;;;;;;;10.4;67.5;101980;;;;
2022/03/09 11:18:32;;;;;;;17.4;14.5;;;;;;;10.6;66.1;101980;;;;
2022/03/09 11:20:32;;;;;;;17.4;14.5;;;;;;;10.5;64.4;101970;;;;
2022/03/09 11:26:32;;;;;;;17.4;14.5;;;;;;;10.7;64.1;101970;;;;
2022/03/09 11:28:32;;;;;;;17.4;14.5;;;;;;;10.8;63.3;101960;;;;
2022/03/09 11:30:33;;;;;;;17.4;14.5;;;;;;;10.9;63.5;101960;;;;
2022/03/09 11:32:32;;;;;;;17.4;14.5;;;;;;;10.7;61.6;101960;;;;
2022/03/09 11:36:33;;;;;;;17.4;14.7;;;;;;;10.8;62.3;101960;;;;
2022/03/09 11:40:32;;;;;;;17.4;14.7;;;;;;;10.9;61.2;101960;;;;
2022/03/09 11:42:33;;;;;;;17.4;14.7;;;;;;;11.1;60.9;101950;;;;
2022/03/09 11:44:34;;;;;;;17.4;14.7;;;;;;;11.0;61.2;101950;;;;
2022/03/09 11:46:32;;;;;;;17.4;14.7;;;;;;;11.1;61.2;101950;;;;
2022/03/09 11:48:32;;;;;;;17.4;14.7;;;;;;;10.9;58.4;101940;;;;
2022/03/09 11:50:32;;;;;;;17.4;14.7;;;;;;;11.1;56.3;101940;;;;
2022/03/09 11:52:32;;;;;;;17.4;14.7;;;;;;;11.2;57.8;101930;;;;
2022/03/09 11:54:32;;;;;;;19.0;16.4;;;;;;;11.3;56.4;101940;;;;
2022/03/09 11:58:32;;;;;;;19.0;16.4;;;;;;;11.5;57.0;101940;;;;
2022/03/09 12:00:32;;;;;;;19.0;16.4;;;;;;;11.6;58.1;101940;;;;
2022/03/09 12:04:32;;;;;;;19.0;16.4;;;;;;;11.5;56.7;101930;;;;
2022/03/09 12:06:32;;;;;;;19.0;16.4;;;;;;;11.6;56.7;101930;;;;
2022/03/09 12:08:33;;;;;;;19.0;16.4;;;;;;;11.9;58.0;101920;;;;
2022/03/09 12:12:32;;;;;;;19.3;16.8;;;;;;;12.0;57.0;101920;;;;
2022/03/09 12:14:32;;;;;;;19.3;16.8;;;;;;;11.8;56.1;101910;;;;
2022/03/09 12:16:32;;;;;;;19.3;16.8;;;;;;;12.0;56.5;101910;;;;
2022/03/09 12:20:32;;;;;;;19.3;16.8;;;;;;;12.2;56.2;101910;;;;
2022/03/09 12:22:32;;;;;;;19.3;16.8;;;;;;;12.0;55.3;101910;;;;
2022/03/09 12:24:35;;;;;;;19.3;16.8;;;;;;;12.1;56.7;101910;;;;
2022/03/09 12:27:00;;;;;;;19.3;16.8;;;;;;;12.3;55.3;101910;;;;
2022/03/09 12:28:00;;;;;;;19.3;16.8;;;;;;;12.3;55.3;101910;;;;
2022/03/09 12:29:00;;;;;;;19.3;16.8;;;;;;;12.4;55.6;101910;;;;
2022/03/09 12:30:00;;;;;;;19.3;16.8;;;;;;;12.4;55.6;101910;;;;
2022/03/09 12:31:00;;;;;;;19.3;16.8;;;;;;;12.5;55.7;101910;;;;
2022/03/09 12:32:00;;;;;;;19.3;16.8;;;;;;;12.5;55.7;101910;;;;
2022/03/09 12:33:00;;;;;;;22.4;18.0;;;;;;;12.5;56.1;101910;;;;
2022/03/09 12:34:00;;;;;;;22.4;18.0;;;;;;;12.5;56.1;101910;;;;
2022/03/09 12:35:04;;;;;;;22.4;18.0;;;;;;;12.5;54.7;101920;;;;
2022/03/09 12:36:10;;;;;;;22.4;18.0;;;;;;;12.5;54.7;101920;;;;
2022/03/09 12:37:01;;;;;;;22.4;18.0;;;;;;;12.5;51.9;101920;;;;
2022/03/09 12:38:00;;;;;;;22.4;18.0;;;;;;;12.5;51.9;101920;;;;
2022/03/09 12:39:01;;;;;;;22.4;18.0;;;;;;;12.6;52.1;101910;;;;
2022/03/09 12:40:02;;;;;;;22.4;18.0;;;;;;;12.6;52.1;101910;;;;
2022/03/09 12:41:00;;;;;;;22.4;18.0;;;;;;;12.6;52.6;101910;;;;
2022/03/09 12:42:00;;;;;;;22.4;18.0;;;;;;;12.6;52.6;101910;;;;
2022/03/09 12:43:00;;;;;;;22.4;18.0;;;;;;;12.8;51.8;101910;;;;
2022/03/09 12:44:00;;;;;;;22.4;18.0;;;;;;;12.8;51.8;101910;;;;
2022/03/09 12:45:00;;;;;;;22.4;18.0;;;;;;;12.8;51.1;101910;;;;
2022/03/09 12:46:00;;;;;;;22.4;18.0;;;;;;;12.8;51.1;101910;;;;
2022/03/09 12:47:03;;;;;;;22.4;18.0;;;;;;;12.6;50.9;101910;;;;
2022/03/09 12:48:00;;;;;;;22.4;18.0;;;;;;;12.6;50.9;101910;;;;
2022/03/09 12:49:00;;;;;;;22.4;18.0;;;;;;;12.7;53.6;101910;;;;
2022/03/09 12:50:00;;;;;;;22.4;18.0;;;;;;;12.7;53.6;101910;;;;
2022/03/09 12:51:00;;;;;;;22.4;18.0;;;;;;;12.8;52.2;101910;;;;
2022/03/09 12:52:10;;;;;;;22.4;18.0;;;;;;;12.8;52.2;101910;;;;
2022/03/09 12:53:00;;;;;;;23.0;18.4;;;;;;;12.8;51.9;101910;;;;
2022/03/09 12:54:00;;;;;;;23.0;18.4;;;;;;;12.8;51.9;101910;;;;
2022/03/09 12:55:00;;;;;;;23.0;18.4;;;;;;;12.9;52.8;101910;;;;
2022/03/09 12:56:10;;;;;;;23.0;18.4;;;;;;;12.9;52.8;101910;;;;
2022/03/09 12:57:00;;;;;;;23.0;18.4;;;;;;;12.9;52.7;101910;;;;
2022/03/09 12:58:00;;;;;;;23.0;18.4;;;;;;;12.9;52.7;101910;;;;
2022/03/09 12:59:00;;;;;;;23.0;18.4;;;;;;;12.9;51.4;101910;;;;
2022/03/09 13:00:00;;;;;;;23.0;18.4;;;;;;;12.9;51.4;101910;;;;
2022/03/09 13:01:00;;;;;;;23.0;18.4;;;;;;;12.9;53.3;101910;;;;
2022/03/09 13:02:00;;;;;;;23.0;18.4;;;;;;;12.9;53.3;101910;;;;
2022/03/09 13:03:00;;;;;;;23.0;18.4;;;;;;;13.0;52.9;101920;;;;
2022/03/09 13:04:00;;;;;;;23.0;18.4;;;;;;;13.0;52.9;101920;;;;
2022/03/09 13:05:00;;;;;;;23.0;18.4;;;;;;;13.0;52.8;101910;;;;
2022/03/09 13:06:00;;;;;;;23.0;18.4;;;;;;;13.0;52.8;101910;;;;
2022/03/09 13:07:00;;;;;;;23.0;18.4;;;;;;;13.1;51.3;101920;;;;
2022/03/09 13:08:00;;;;;;;23.0;18.4;;;;;;;13.1;51.3;101920;;;;
2022/03/09 13:09:00;;;;;;;23.0;18.4;;;;;;;13.1;53.0;101910;;;;
2022/03/09 13:10:00;;;;;;;23.0;18.4;;;;;;;13.1;53.0;101910;;;;
2022/03/09 13:11:00;;;;;;;23.0;18.4;;;;;;;13.2;52.0;101910;;;;
2022/03/09 13:12:00;;;;;;;23.0;18.4;;;;;;;13.2;52.0;101910;;;;
2022/03/09 13:13:00;;;;;;;23.7;19.3;;;;;;;13.1;51.6;101900;;;;
2022/03/09 13:14:00;;;;;;;23.7;19.3;;;;;;;13.1;51.6;101900;;;;
2022/03/09 13:15:04;;;;;;;23.7;19.3;;;;;;;13.1;52.5;101900;;;;
2022/03/09 13:16:00;;;;;;;23.7;19.3;;;;;;;13.1;52.5;101900;;;;
2022/03/09 13:17:00;;;;;;;23.7;19.3;;;;;;;13.3;50.4;101890;;;;
2022/03/09 13:18:00;;;;;;;23.7;19.3;;;;;;;13.3;50.4;101890;;;;
2022/03/09 13:19:00;;;;;;;23.7;19.3;;;;;;;13.3;52.0;101900;;;;
2022/03/09 13:20:03;;;;;;;23.7;19.3;;;;;;;13.3;52.0;101900;;;;
2022/03/09 13:21:00;;;;;;;23.7;19.3;;;;;;;13.3;51.0;101890;;;;
2022/03/09 13:22:00;;;;;;;23.7;19.3;;;;;;;13.3;51.0;101890;;;;
2022/03/09 13:23:00;;;;;;;23.7;19.3;;;;;;;13.4;51.5;101890;;;;
2022/03/09 13:24:00;;;;;;;23.7;19.3;;;;;;;13.4;51.5;101890;;;;
2022/03/09 13:25:00;;;;;;;23.7;19.3;;;;;;;13.3;50.3;101890;;;;
2022/03/09 13:26:00;;;;;;;23.7;19.3;;;;;;;13.3;50.3;101890;;;;
2022/03/09 13:27:00;;;;;;;23.7;19.3;;;;;;;13.4;50.7;101890;;;;
2022/03/09 13:28:00;;;;;;;23.7;19.3;;;;;;;13.4;50.7;101890;;;;
2022/03/09 13:29:00;;;;;;;23.7;19.3;;;;;;;13.3;50.0;101890;;;;
2022/03/09 13:30:00;;;;;;;23.7;19.3;;;;;;;13.3;50.0;101890;;;;
2022/03/09 13:31:00;;;;;;;23.7;19.3;;;;;;;13.3;51.2;101890;;;;
2022/03/09 13:32:02;;;;;;;23.7;19.3;;;;;;;13.3;51.2;101890;;;;
2022/03/09 13:33:01;;;;;;;25.0;19.9;;;;;;;13.4;52.5;101880;;;;
2022/03/09 13:34:00;;;;;;;25.0;19.9;;;;;;;13.4;52.5;101880;;;;
2022/03/09 13:35:06;;;;;;;25.0;19.9;;;;;;;13.4;49.8;101880;;;;
2022/03/09 13:36:00;;;;;;;25.0;19.9;;;;;;;13.4;49.8;101880;;;;
2022/03/09 13:37:00;;;;;;;25.0;19.9;;;;;;;13.3;49.3;101880;;;;
2022/03/09 13:38:00;;;;;;;25.0;19.9;;;;;;;13.3;49.3;101880;;;;
2022/03/09 13:39:01;;;;;;;25.0;19.9;;;;;;;13.3;48.2;101880;;;;
2022/03/09 13:40:01;;;;;;;25.0;19.9;;;;;;;13.3;48.2;101880;;;;
2022/03/09 13:41:01;;;;;;;25.0;19.9;;;;;;;13.3;49.9;101870;;;;
2022/03/09 13:42:01;;;;;;;25.0;19.9;;;;;;;13.3;49.9;101870;;;;
2022/03/09 13:43:01;;;;;;;25.0;19.9;;;;;;;13.4;49.0;101870;;;;
2022/03/09 13:44:02;;;;;;;25.0;19.9;;;;;;;13.4;49.0;101870;;;;
2022/03/09 13:45:02;;;;;;;25.0;19.9;;;;;;;13.4;50.4;101870;;;;
2022/03/09 13:46:02;;;;;;;25.0;19.9;;;;;;;13.4;50.4;101870;;;;
2022/03/09 13:47:03;;;;;;;25.0;19.9;;;;;;;13.6;50.0;101880;;;;
2022/03/09 13:48:04;;;;;;;25.0;19.9;;;;;;;13.6;50.0;101880;;;;
2022/03/09 13:49:00;;;;;;;25.0;19.9;;;;;;;13.6;50.1;101880;;;;
2022/03/09 13:50:00;;;;;;;25.0;19.9;;;;;;;13.6;50.1;101880;;;;
2022/03/09 13:51:00;;;;;;;25.0;19.9;;;;;;;13.6;51.0;101870;;;;
2022/03/09 13:52:00;;;;;;;25.0;19.9;;;;;;;13.6;51.0;101870;;;;
2022/03/09 13:53:00;;;;;;;26.6;20.0;;;;;;;13.7;51.0;101870;;;;
2022/03/09 13:54:00;;;;;;;26.6;20.0;;;;;;;13.7;51.0;101870;;;;
2022/03/09 13:55:00;;;;;;;26.6;20.0;;;;;;;13.8;50.0;101880;;;;
2022/03/09 13:56:00;;;;;;;26.6;20.0;;;;;;;13.8;50.0;101880;;;;
2022/03/09 13:57:00;;;;;;;26.6;20.0;;;;;;;13.6;48.0;101880;;;;
2022/03/09 13:58:00;;;;;;;26.6;20.0;;;;;;;13.6;48.0;101880;;;;
2022/03/09 13:59:00;;;;;;;26.6;20.0;;;;;;;13.6;49.2;101880;;;;
2022/03/09 14:00:00;;;;;;;26.6;20.0;;;;;;;13.6;49.2;101880;;;;
2022/03/09 14:01:00;;;;;;;26.6;20.0;;;;;;;13.5;47.7;101880;;;;
2022/03/09 14:02:00;;;;;;;26.6;20.0;;;;;;;13.5;47.7;101880;;;;
2022/03/09 14:03:00;;;;;;;26.6;20.0;;;;;;;13.6;48.6;101880;;;;
2022/03/09 14:04:00;;;;;;;26.6;20.0;;;;;;;13.6;48.6;101880;;;;
2022/03/09 14:05:10;;;;;;;26.6;20.0;;;;;;;13.6;49.9;101880;;;;
2022/03/09 14:06:00;;;;;;;26.6;20.0;;;;;;;13.6;49.9;101880;;;;
2022/03/09 14:07:00;;;;;;;26.6;20.0;;;;;;;13.6;51.5;101880;;;;
2022/03/09 14:08:00;;;;;;;26.6;20.0;;;;;;;13.6;51.5;101880;;;;
2022/03/09 14:09:00;;;;;;;26.6;20.0;;;;;;;13.7;49.5;101880;;;;
2022/03/09 14:10:00;;;;;;;26.6;20.0;;;;;;;13.7;49.5;101880;;;;
2022/03/09 14:11:00;;;;;;;26.6;20.0;;;;;;;13.8;49.0;101880;;;;
2022/03/09 14:12:00;;;;;;;26.6;20.0;;;;;;;13.8;49.0;101880;;;;
2022/03/09 14:13:00;;;;;;;22.0;18.4;;;;;;;13.8;47.6;101880;;;;
2022/03/09 14:14:00;;;;;;;22.0;18.4;;;;;;;13.8;47.6;101880;;;;
2022/03/09 14:15:00;;;;;;;22.0;18.4;;;;;;;13.6;49.2;101880;;;;
2022/03/09 14:16:05;;;;;;;22.0;18.4;;;;;;;13.6;49.2;101880;;;;
2022/03/09 14:17:00;;;;;;;22.0;18.4;;;;;;;13.8;49.7;101880;;;;
2022/03/09 14:18:00;;;;;;;22.0;18.4;;;;;;;13.8;49.7;101880;;;;
2022/03/09 14:19:00;;;;;;;22.0;18.4;;;;;;;13.7;48.0;101870;;;;
2022/03/09 14:20:00;;;;;;;22.0;18.4;;;;;;;13.7;48.0;101870;;;;
2022/03/09 14:21:00;;;;;;;22.0;18.4;;;;;;;13.8;48.8;101880;;;;
2022/03/09 14:22:00;;;;;;;22.0;18.4;;;;;;;13.8;48.8;101880;;;;
2022/03/09 14:23:00;;;;;;;22.0;18.4;;;;;;;13.9;49.8;101880;;;;
2022/03/09 14:24:01;;;;;;;22.0;18.4;;;;;;;13.9;49.8;101880;;;;
2022/03/09 14:25:00;;;;;;;22.0;18.4;;;;;;;13.9;45.6;101880;;;;
2022/03/09 14:26:00;;;;;;;22.0;18.4;;;;;;;13.9;45.6;101880;;;;
2022/03/09 14:27:00;;;;;;;22.0;18.4;;;;;;;13.9;45.8;101880;;;;
2022/03/09 14:28:00;;;;;;;22.0;18.4;;;;;;;13.9;45.8;101880;;;;
2022/03/09 14:29:00;;;;;;;22.0;18.4;;;;;;;13.9;45.4;101880;;;;
2022/03/09 14:30:00;;;;;;;22.0;18.4;;;;;;;13.9;45.4;101880;;;;
2022/03/09 14:31:00;;;;;;;22.0;18.4;;;;;;;13.8;46.4;101880;;;;
2022/03/09 14:32:00;;;;;;;22.0;18.4;;;;;;;13.8;46.4;101880;;;;
2022/03/09 14:33:00;;;;;;;21.8;17.0;;;;;;;13.9;47.7;101880;;;;
2022/03/09 14:34:00;;;;;;;21.8;17.0;;;;;;;13.9;47.7;101880;;;;
2022/03/09 14:35:00;;;;;;;21.8;17.0;;;;;;;13.8;46.0;101870;;;;
2022/03/09 14:36:03;;;;;;;21.8;17.0;;;;;;;13.8;46.0;101870;;;;
2022/03/09 14:37:00;;;;;;;21.8;17.0;;;;;;;13.7;47.7;101870;;;;
2022/03/09 14:38:00;;;;;;;21.8;17.0;;;;;;;13.7;47.7;101870;;;;
2022/03/09 14:39:00;;;;;;;21.8;17.0;;;;;;;13.8;47.7;101870;;;;
2022/03/09 14:40:00;;;;;;;21.8;17.0;;;;;;;13.8;47.7;101870;;;;
2022/03/09 14:41:00;;;;;;;21.8;17.0;;;;;;;13.8;46.8;101870;;;;
2022/03/09 14:42:00;;;;;;;21.8;17.0;;;;;;;13.8;46.8;101870;;;;
2022/03/09 14:43:00;;;;;;;21.8;17.0;;;;;;;13.8;51.5;101860;;;;
2022/03/09 14:44:00;;;;;;;21.8;17.0;;;;;;;13.8;51.5;101860;;;;
2022/03/09 14:45:00;;;;;;;21.8;17.0;;;;;;;13.9;47.5;101860;;;;
2022/03/09 14:46:00;;;;;;;21.8;17.0;;;;;;;13.9;47.5;101860;;;;
2022/03/09 14:47:01;;;;;;;21.8;17.0;;;;;;;14.0;47.2;101850;;;;
2022/03/09 14:48:02;;;;;;;21.8;17.0;;;;;;;14.0;47.2;101850;;;;
2022/03/09 14:49:00;;;;;;;21.8;17.0;;;;;;;13.9;45.2;101860;;;;
2022/03/09 14:50:00;;;;;;;21.8;17.0;;;;;;;13.9;45.2;101860;;;;
2022/03/09 14:51:00;;;;;;;21.8;17.0;;;;;;;13.9;45.7;101860;;;;
2022/03/09 14:52:00;;;;;;;21.2;16.3;;;;;;;13.9;45.7;101860;;;;
2022/03/09 14:53:00;;;;;;;21.2;16.3;;;;;;;13.9;46.8;101860;;;;
2022/03/09 14:54:00;;;;;;;21.2;16.3;;;;;;;13.9;46.8;101860;;;;
2022/03/09 14:55:00;;;;;;;21.2;16.3;;;;;;;13.7;46.4;101860;;;;
2022/03/09 14:56:03;;;;;;;21.2;16.3;;;;;;;13.7;46.4;101860;;;;
2022/03/09 14:57:00;;;;;;;21.2;16.3;;;;;;;13.8;45.9;101850;;;;
2022/03/09 14:58:00;;;;;;;21.2;16.3;;;;;;;13.8;45.9;101850;;;;
2022/03/09 14:59:00;;;;;;;21.2;16.3;;;;;;;13.8;46.2;101860;;;;
2022/03/09 15:00:00;;;;;;;21.2;16.3;;;;;;;13.8;46.2;101860;;;;
2022/03/09 15:01:00;;;;;;;21.2;16.3;;;;;;;13.8;46.6;101850;;;;